Terminal Aerodrome Forecast
Issued by NWS Upton, NY

Home | Current Version | Previous Version | Text Only | Print | Product List | Glossary On
Versions: 1 2 3 4 5 6 7 8 9 10 11 12 13 14 15 16 17 18 19 20 21 22 23 24 25 26 27 28
000
FTUS41 KOKX 261700
TAFJFK
TAF
KJFK 261731Z 2618/2724 21013KT P6SM FEW040 SCT070 BKN100
     FM262000 19016KT P6SM SCT060
     FM270200 20009KT P6SM FEW015 SCT040 BKN100
     FM271000 17010KT 5SM SHRA BR SCT015 BKN040
     FM271500 20015KT P6SM SCT040 SCT100=

USA.gov is the U.S. government's official web portal to all federal, state and local government web resources and services.